createdAt,value
2018-03-15T00:02:03.426Z,5.12
2018-03-15T00:04:33.804Z,4.70
2018-03-15T00:07:00.163Z,5.25
2018-03-15T00:09:26.763Z,4.40
2018-03-15T00:11:53.108Z,4.70
2018-03-15T00:14:19.418Z,4.82
2018-03-15T00:16:46.232Z,4.65
2018-03-15T00:19:12.724Z,4.30
2018-03-15T00:21:39.133Z,4.30
2018-03-15T00:24:05.619Z,4.65
2018-03-15T00:26:31.948Z,4.32
2018-03-15T00:28:58.406Z,3.92
2018-03-15T00:31:24.770Z,5.07
2018-03-15T00:33:51.184Z,4.40
2018-03-15T00:36:17.692Z,4.37
2018-03-15T00:38:44.101Z,4.28
2018-03-15T00:41:10.474Z,4.85
2018-03-15T00:43:36.774Z,4.30
2018-03-15T00:46:03.140Z,4.35
2018-03-15T00:48:29.650Z,4.22
2018-03-15T00:50:56.087Z,4.60
2018-03-15T00:53:22.430Z,3.97
2018-03-15T00:55:48.794Z,4.57
2018-03-15T00:58:15.287Z,4.20
2018-03-15T01:00:41.732Z,4.07
2018-03-15T01:03:08.166Z,4.00
2018-03-15T01:05:34.572Z,4.12
2018-03-15T01:08:01.121Z,3.85
2018-03-15T01:10:27.451Z,4.47
2018-03-15T01:12:53.897Z,4.03
2018-03-15T01:15:20.375Z,3.60
2018-03-15T01:17:46.798Z,4.15
2018-03-15T01:20:13.199Z,3.80
2018-03-15T01:22:39.722Z,3.35
2018-03-15T01:25:06.035Z,4.10
2018-03-15T01:27:32.347Z,4.40
2018-03-15T01:29:58.747Z,3.78
2018-03-15T01:32:25.245Z,4.05
2018-03-15T01:34:51.690Z,3.62
2018-03-15T01:37:17.946Z,4.03
2018-03-15T01:39:44.391Z,3.80
2018-03-15T01:42:10.836Z,3.75
2018-03-15T01:44:37.187Z,3.75
2018-03-15T01:47:03.751Z,3.50
2018-03-15T01:49:30.420Z,3.45
2018-03-15T01:51:56.870Z,3.85
2018-03-15T01:54:23.381Z,3.75
2018-03-15T01:56:49.922Z,3.83
2018-03-15T01:59:16.502Z,4.12
2018-03-15T02:01:42.753Z,3.72
2018-03-15T02:04:09.087Z,3.80
2018-03-15T02:06:35.624Z,4.00
2018-03-15T02:09:02.090Z,3.85
2018-03-15T02:11:28.352Z,3.60
2018-03-15T02:13:54.685Z,3.80
2018-03-15T02:16:20.971Z,3.78
2018-03-15T02:18:47.382Z,3.50
2018-03-15T02:21:13.672Z,3.67
2018-03-15T02:23:40.246Z,3.40
2018-03-15T02:26:06.575Z,3.40
2018-03-15T02:28:32.887Z,3.62
2018-03-15T02:30:59.205Z,4.10
2018-03-15T02:33:25.690Z,3.80
2018-03-15T02:35:52.178Z,3.65
2018-03-15T02:38:18.560Z,3.72
2018-03-15T02:40:45.039Z,4.25
2018-03-15T02:43:11.383Z,4.10
2018-03-15T02:45:37.927Z,4.20
2018-03-15T02:48:04.468Z,3.97
2018-03-15T02:50:30.738Z,3.95
2018-03-15T02:52:57.191Z,3.75
2018-03-15T02:55:23.685Z,4.12
2018-03-15T02:57:49.984Z,4.70
2018-03-15T03:00:16.238Z,4.00
2018-03-15T03:02:42.585Z,4.37
2018-03-15T03:05:08.875Z,3.67
2018-03-15T03:07:35.247Z,3.45
2018-03-15T03:10:01.633Z,4.20
2018-03-15T03:12:28.078Z,4.12
2018-03-15T03:14:54.382Z,4.60
2018-03-15T03:17:20.916Z,4.20
2018-03-15T03:19:47.368Z,4.47
2018-03-15T03:22:13.794Z,4.50
2018-03-15T03:24:40.162Z,5.35
2018-03-15T03:27:06.554Z,4.78
2018-03-15T03:29:33.078Z,4.60
2018-03-15T03:31:59.514Z,4.45
2018-03-15T03:34:25.917Z,4.50
2018-03-15T03:36:52.555Z,4.47
2018-03-15T03:39:19.133Z,4.30
2018-03-15T03:41:45.381Z,3.60
2018-03-15T03:44:11.608Z,3.70
2018-03-15T03:46:37.937Z,3.95
2018-03-15T03:49:04.399Z,3.87
2018-03-15T03:51:30.665Z,3.80
2018-03-15T03:53:57.029Z,3.80
2018-03-15T03:56:23.381Z,4.30
2018-03-15T03:58:49.726Z,3.92
2018-03-15T04:01:16.197Z,4.10
2018-03-15T04:03:42.626Z,3.97
2018-03-15T04:06:08.999Z,3.50
2018-03-15T04:08:35.215Z,4.07
2018-03-15T04:11:01.522Z,3.97
2018-03-15T04:13:28.031Z,4.28
2018-03-15T04:15:54.518Z,4.82
2018-03-15T04:18:20.956Z,3.62
2018-03-15T04:20:48.427Z,4.22
2018-03-15T04:23:14.834Z,4.45
2018-03-15T04:25:41.322Z,4.55
2018-03-15T04:28:07.777Z,4.20
2018-03-15T04:30:34.113Z,3.80
2018-03-15T04:33:00.391Z,3.70
2018-03-15T04:35:26.646Z,4.15
2018-03-15T04:37:52.994Z,4.43
2018-03-15T04:40:19.372Z,4.22
2018-03-15T04:42:45.800Z,3.62
2018-03-15T04:45:12.227Z,4.20
2018-03-15T04:47:38.718Z,3.65
2018-03-15T04:50:04.949Z,4.47
2018-03-15T04:52:31.525Z,3.95
2018-03-15T04:54:57.817Z,3.95
2018-03-15T04:57:24.228Z,3.70
2018-03-15T04:59:50.578Z,3.58
2018-03-15T05:02:17.163Z,3.90
2018-03-15T05:04:43.372Z,4.12
2018-03-15T05:07:09.784Z,4.60
2018-03-15T05:09:36.243Z,3.70
2018-03-15T05:12:02.819Z,4.05
2018-03-15T05:14:29.149Z,3.65
2018-03-15T05:16:56.562Z,4.10
2018-03-15T05:19:22.922Z,4.60
2018-03-15T05:21:49.217Z,5.15
2018-03-15T05:24:15.549Z,4.18
2018-03-15T05:26:42.035Z,5.95
2018-03-15T05:29:08.383Z,5.53
2018-03-15T05:31:34.822Z,4.80
2018-03-15T05:34:01.060Z,6.05
2018-03-15T05:36:27.459Z,5.43
2018-03-15T05:38:53.758Z,5.65
2018-03-15T05:41:20.235Z,5.78
2018-03-15T05:43:46.569Z,7.10
2018-03-15T05:46:13.778Z,7.55
2018-03-15T05:48:40.013Z,8.77
2018-03-15T05:51:07.261Z,8.68
2018-03-15T05:53:33.850Z,9.20
2018-03-15T05:56:00.081Z,8.93
2018-03-15T05:58:26.480Z,8.50
2018-03-15T06:00:52.801Z,10.75
2018-03-15T06:03:19.114Z,8.73
2018-03-15T06:05:45.410Z,10.10
2018-03-15T06:08:11.721Z,10.23
2018-03-15T06:10:37.985Z,11.05
2018-03-15T06:13:04.556Z,10.32
2018-03-15T06:15:30.925Z,10.75
2018-03-15T06:17:57.300Z,12.02
2018-03-15T06:20:24.092Z,10.25
2018-03-15T06:22:50.414Z,9.68
2018-03-15T06:25:16.814Z,10.75
2018-03-15T06:27:43.213Z,10.27
2018-03-15T06:30:09.688Z,10.88
2018-03-15T06:32:36.075Z,12.40
2018-03-15T06:35:02.603Z,10.02
2018-03-15T06:37:28.958Z,11.27
2018-03-15T06:39:55.314Z,11.60
2018-03-15T06:42:21.944Z,10.43
2018-03-15T06:44:48.394Z,9.75
2018-03-15T06:47:14.657Z,10.45
2018-03-15T06:49:41.090Z,11.50
2018-03-15T06:52:07.443Z,8.50
2018-03-15T06:54:33.829Z,9.90
2018-03-15T06:57:00.182Z,8.85
2018-03-15T06:59:26.481Z,7.00
2018-03-15T07:01:53.429Z,6.32
2018-03-15T07:04:23.158Z,4.93
2018-03-15T07:06:49.716Z,5.40
2018-03-15T07:09:16.165Z,7.15
2018-03-15T07:11:42.681Z,6.57
2018-03-15T07:14:09.723Z,6.20
2018-03-15T07:16:36.158Z,6.00
2018-03-15T07:19:03.908Z,4.68
2018-03-15T07:21:30.345Z,5.60
2018-03-15T07:23:56.584Z,5.32
2018-03-15T07:26:23.965Z,5.20
2018-03-15T07:28:50.512Z,4.30
2018-03-15T07:31:18.619Z,4.60
2018-03-15T07:33:45.749Z,4.32
2018-03-15T07:36:12.619Z,4.70
2018-03-15T07:38:46.394Z,4.10
2018-03-15T07:41:13.312Z,3.28
2018-03-15T07:43:39.635Z,3.67
2018-03-15T07:46:06.169Z,3.30
2018-03-15T07:48:39.330Z,4.18
2018-03-15T07:51:07.255Z,3.50
2018-03-15T07:53:33.758Z,3.10
2018-03-15T07:56:00.375Z,4.40
2018-03-15T07:58:31.356Z,4.00
2018-03-15T08:00:58.635Z,2.85
2018-03-15T08:03:30.524Z,3.25
2018-03-15T08:05:57.073Z,3.10
2018-03-15T08:08:24.027Z,3.35
2018-03-15T08:10:51.214Z,4.07
2018-03-15T08:13:18.072Z,2.58
2018-03-15T08:15:47.815Z,2.92
2018-03-15T08:18:14.413Z,3.22
2018-03-15T08:20:41.573Z,2.70
2018-03-15T08:23:07.796Z,2.83
2018-03-15T08:25:34.421Z,2.55
2018-03-15T08:28:00.746Z,2.62
2018-03-15T08:30:27.156Z,2.12
2018-03-15T08:32:53.647Z,2.70
2018-03-15T08:35:20.083Z,3.08
2018-03-15T08:37:46.318Z,2.80
2018-03-15T08:40:12.810Z,3.40
2018-03-15T08:42:39.128Z,2.20
2018-03-15T08:45:05.495Z,2.50
2018-03-15T08:47:31.969Z,2.67
2018-03-15T08:49:58.491Z,2.97
2018-03-15T08:52:24.984Z,2.97
2018-03-15T08:54:51.287Z,2.50
2018-03-15T08:57:17.541Z,2.47
2018-03-15T08:59:43.846Z,3.10
2018-03-15T09:02:10.253Z,3.65
2018-03-15T09:04:37.316Z,3.40
2018-03-15T09:07:03.365Z,3.30
2018-03-15T09:12:15.792Z,3.90
2018-03-15T09:14:44.870Z,3.25
2018-03-15T09:17:13.966Z,4.10
2018-03-15T09:19:42.908Z,4.18
2018-03-15T09:22:11.905Z,3.80
2018-03-15T09:24:40.783Z,4.00
2018-03-15T09:27:09.722Z,3.65
2018-03-15T09:29:38.646Z,3.95
2018-03-15T09:32:07.710Z,4.40
2018-03-15T09:34:36.845Z,4.43
2018-03-15T09:37:05.873Z,3.53
2018-03-15T09:39:34.773Z,4.22
2018-03-15T09:42:03.926Z,3.72
2018-03-15T09:44:33.136Z,5.70
2018-03-15T09:47:02.215Z,4.47
2018-03-15T09:49:31.196Z,4.22
2018-03-15T09:52:00.255Z,5.15
2018-03-15T09:54:29.350Z,5.60
2018-03-15T09:56:58.628Z,4.90
2018-03-15T09:59:27.623Z,3.62
2018-03-15T10:01:56.711Z,4.50
2018-03-15T10:04:25.665Z,3.62
2018-03-15T10:06:54.769Z,4.03
2018-03-15T10:09:23.864Z,3.97
2018-03-15T10:11:52.954Z,3.00
2018-03-15T10:14:22.198Z,3.62
2018-03-15T10:16:51.195Z,3.53
2018-03-15T10:19:20.230Z,4.18
2018-03-15T10:21:49.402Z,3.85
2018-03-15T10:24:18.642Z,3.40
2018-03-15T10:26:48.378Z,3.30
2018-03-15T10:29:17.310Z,3.75
2018-03-15T10:31:46.466Z,3.25
2018-03-15T10:34:15.566Z,3.05
2018-03-15T10:36:44.724Z,9.23
2018-03-15T10:39:13.503Z,2.92
2018-03-15T10:41:42.460Z,3.42
2018-03-15T10:44:12.120Z,2.87
2018-03-15T10:46:41.547Z,2.67
2018-03-15T10:49:10.602Z,5.28
2018-03-15T10:51:40.424Z,3.33
2018-03-15T10:54:09.375Z,3.28
2018-03-15T10:56:38.947Z,3.22
2018-03-15T10:59:07.859Z,3.12
2018-03-15T11:01:42.313Z,2.85
2018-03-15T11:04:11.268Z,3.30
2018-03-15T11:06:41.636Z,3.10
2018-03-15T11:12:17.404Z,3.70
2018-03-15T11:14:46.342Z,3.30
2018-03-15T11:17:17.535Z,2.90
2018-03-15T11:19:46.550Z,3.10
2018-03-15T11:22:16.244Z,3.45
2018-03-15T11:24:45.287Z,2.30
2018-03-15T11:27:14.449Z,2.53
2018-03-15T11:29:43.968Z,2.62
2018-03-15T11:32:13.675Z,2.87
2018-03-15T11:34:42.806Z,1.80
2018-03-15T11:37:12.516Z,2.15
2018-03-15T11:39:42.713Z,6.43
2018-03-15T11:42:11.964Z,4.43
2018-03-15T11:44:42.133Z,3.00
2018-03-15T11:47:11.558Z,2.70
2018-03-15T11:49:41.882Z,2.10
2018-03-15T11:52:16.944Z,2.20
2018-03-15T11:54:48.158Z,2.17
2018-03-15T11:57:38.036Z,2.62
2018-03-15T12:00:11.246Z,2.80
2018-03-15T12:02:40.304Z,2.47
2018-03-15T12:05:09.460Z,2.47
2018-03-15T12:07:39.429Z,2.22
2018-03-15T12:10:08.653Z,2.50
2018-03-15T12:12:37.456Z,2.20
2018-03-15T12:15:06.338Z,2.50
2018-03-15T12:17:35.407Z,2.62
2018-03-15T12:20:04.484Z,3.10
2018-03-15T12:22:33.543Z,3.40
2018-03-15T12:25:02.602Z,3.20
2018-03-15T12:27:31.635Z,3.40
2018-03-15T12:30:00.615Z,2.47
2018-03-15T12:32:29.524Z,3.33
2018-03-15T12:34:58.416Z,4.65
2018-03-15T12:37:27.506Z,4.25
2018-03-15T12:39:56.498Z,3.30
2018-03-15T12:42:25.543Z,3.50
2018-03-15T12:44:54.486Z,3.67
2018-03-15T12:47:23.495Z,3.97
2018-03-15T12:49:52.472Z,4.30
2018-03-15T12:52:21.431Z,4.72
2018-03-15T12:54:50.392Z,3.30
2018-03-15T12:57:19.767Z,2.92
2018-03-15T12:59:48.755Z,3.87
2018-03-15T13:02:17.711Z,3.00
2018-03-15T13:04:46.731Z,3.30
2018-03-15T13:07:15.846Z,3.35
2018-03-15T13:09:44.734Z,2.90
2018-03-15T13:12:13.804Z,3.30
2018-03-15T13:14:43.168Z,3.70
2018-03-15T13:17:12.162Z,3.45
2018-03-15T13:19:41.274Z,3.33
2018-03-15T13:22:10.456Z,4.35
2018-03-15T13:24:39.327Z,3.62
2018-03-15T13:27:08.637Z,3.67
2018-03-15T13:29:37.687Z,3.20
2018-03-15T13:32:07.430Z,3.25
2018-03-15T13:34:36.689Z,3.25
2018-03-15T13:37:06.020Z,3.25
2018-03-15T13:39:35.337Z,3.60
2018-03-15T13:42:04.222Z,2.67
2018-03-15T13:44:33.511Z,3.10
2018-03-15T13:47:02.470Z,3.10
2018-03-15T13:49:31.807Z,3.60
2018-03-15T13:52:01.012Z,4.53
2018-03-15T13:54:30.513Z,3.45
2018-03-15T13:57:00.072Z,3.10
2018-03-15T13:59:29.111Z,3.60
2018-03-15T14:01:58.192Z,3.90
2018-03-15T14:04:27.551Z,3.70
2018-03-15T14:06:56.783Z,3.67
2018-03-15T14:09:26.489Z,8.13
2018-03-15T14:11:55.718Z,4.93
2018-03-15T14:14:24.643Z,4.60
2018-03-15T14:16:53.692Z,3.62
2018-03-15T14:19:22.810Z,3.95
2018-03-15T14:21:52.168Z,3.42
2018-03-15T14:24:30.756Z,3.62
2018-03-15T14:30:01.320Z,3.60
2018-03-15T14:32:31.119Z,3.10
2018-03-15T14:35:04.628Z,3.87
2018-03-15T14:37:37.802Z,3.33
2018-03-15T14:40:08.414Z,3.62
2018-03-15T14:42:45.415Z,3.65
2018-03-15T14:45:14.659Z,3.78
2018-03-15T14:47:45.154Z,3.80
2018-03-15T14:50:14.737Z,3.55
2018-03-15T14:52:43.508Z,4.05
2018-03-15T14:55:13.378Z,3.80
2018-03-15T14:57:42.489Z,3.83
2018-03-15T15:00:11.573Z,4.10
2018-03-15T15:02:40.907Z,3.40
2018-03-15T15:05:10.428Z,4.80
2018-03-15T15:07:40.247Z,4.07
2018-03-15T15:10:09.442Z,4.62
2018-03-15T15:12:38.561Z,4.20
2018-03-15T15:15:07.610Z,3.97
2018-03-15T15:17:36.716Z,4.50
2018-03-15T15:20:05.934Z,4.30
2018-03-15T15:22:34.934Z,4.97
2018-03-15T15:25:04.748Z,5.28
2018-03-15T15:27:33.960Z,5.32
2018-03-15T15:30:03.105Z,5.55
2018-03-15T15:32:32.566Z,5.05
2018-03-15T15:35:02.141Z,5.95
2018-03-15T15:37:34.770Z,5.22
2018-03-15T15:40:04.580Z,5.10
2018-03-15T15:42:38.855Z,5.10
2018-03-15T15:45:13.072Z,5.65
2018-03-15T15:47:42.269Z,5.30
2018-03-15T15:50:11.153Z,5.30
2018-03-15T15:52:41.043Z,5.50
2018-03-15T15:55:10.236Z,5.28
2018-03-15T15:57:39.921Z,6.28
2018-03-15T16:00:08.998Z,7.72
2018-03-15T16:02:38.114Z,8.00
2018-03-15T16:05:08.676Z,6.72
2018-03-15T16:07:38.000Z,7.43
2018-03-15T16:10:07.403Z,11.93
2018-03-15T16:12:36.444Z,11.82
2018-03-15T16:15:08.140Z,12.32
2018-03-15T16:17:39.267Z,10.55
2018-03-15T16:20:10.294Z,9.18
2018-03-15T16:22:40.421Z,9.57
2018-03-15T16:25:09.557Z,9.00
2018-03-15T16:27:38.475Z,7.62
2018-03-15T16:30:08.164Z,7.12
2018-03-15T16:32:37.299Z,8.85
2018-03-15T16:35:08.027Z,8.07
2018-03-15T16:37:37.810Z,7.75
2018-03-15T16:40:12.077Z,8.10
2018-03-15T16:42:41.828Z,7.47
2018-03-15T16:45:11.054Z,7.50
2018-03-15T16:47:40.340Z,8.48
2018-03-15T16:50:09.644Z,8.18
2018-03-15T16:52:39.038Z,9.20
2018-03-15T16:55:08.061Z,10.80
2018-03-15T16:57:37.534Z,9.98
2018-03-15T17:00:06.390Z,9.05
2018-03-15T17:02:35.718Z,8.38
2018-03-15T17:05:04.488Z,8.75
2018-03-15T17:07:33.587Z,12.20
2018-03-15T17:10:02.867Z,14.20
2018-03-15T17:12:32.300Z,17.08
2018-03-15T17:15:01.741Z,18.77
2018-03-15T17:17:31.755Z,19.75
2018-03-15T17:20:01.996Z,20.90
2018-03-15T17:22:31.413Z,20.55
2018-03-15T17:25:02.937Z,21.15
2018-03-15T17:27:32.728Z,27.02
2018-03-15T17:30:02.464Z,29.77
2018-03-15T17:32:33.081Z,33.80
2018-03-15T17:35:03.717Z,34.47
2018-03-15T17:37:33.483Z,36.38
2018-03-15T17:40:02.644Z,38.92
2018-03-15T17:42:33.695Z,39.85
2018-03-15T17:45:03.341Z,33.45
2018-03-15T17:47:33.231Z,33.05
2018-03-15T17:50:03.538Z,32.60
2018-03-15T17:52:33.908Z,32.72
2018-03-15T17:55:03.603Z,35.00
2018-03-15T17:57:33.550Z,38.42
2018-03-15T18:00:03.243Z,42.17
2018-03-15T18:02:32.728Z,41.97
2018-03-15T18:05:02.524Z,47.50
2018-03-15T18:07:32.251Z,44.38
2018-03-15T18:10:02.046Z,51.72
2018-03-15T18:12:32.156Z,57.35
2018-03-15T18:15:01.826Z,86.30
2018-03-15T18:17:31.002Z,60.10
2018-03-15T18:20:02.527Z,39.97
2018-03-15T18:22:32.054Z,37.25
2018-03-15T18:25:03.772Z,40.83
2018-03-15T18:27:33.554Z,35.65
2018-03-15T18:30:03.290Z,33.75
2018-03-15T18:32:33.719Z,31.85
2018-03-15T18:35:04.312Z,30.83
2018-03-15T18:37:33.681Z,30.02
2018-03-15T18:40:04.195Z,28.87
2018-03-15T18:42:33.466Z,32.97
2018-03-15T18:45:03.559Z,33.53
2018-03-15T18:47:33.513Z,37.20
2018-03-15T18:50:02.904Z,30.75
2018-03-15T18:52:32.715Z,51.72
2018-03-15T18:55:03.607Z,62.88
2018-03-15T18:57:33.031Z,60.80
2018-03-15T19:00:03.493Z,57.50
2018-03-15T19:02:33.670Z,59.97
2018-03-15T19:05:02.613Z,69.65
2018-03-15T19:07:34.281Z,105.75
2018-03-15T19:10:04.218Z,145.18
2018-03-15T19:12:33.582Z,187.85
2018-03-15T19:15:03.211Z,132.57
2018-03-15T19:17:32.562Z,110.05
2018-03-15T19:20:02.093Z,100.78
2018-03-15T19:22:32.694Z,100.78
2018-03-15T19:25:02.102Z,88.95
2018-03-15T19:27:32.210Z,86.28
2018-03-15T19:30:02.290Z,86.28
2018-03-15T19:32:32.038Z,84.65
2018-03-15T19:35:01.893Z,59.67
2018-03-15T19:37:33.888Z,52.67
2018-03-15T19:40:03.101Z,77.25
2018-03-15T19:42:32.978Z,67.90
2018-03-15T19:45:03.282Z,61.28
2018-03-15T19:47:33.039Z,58.25
2018-03-15T19:50:03.043Z,58.40
2018-03-15T19:52:33.400Z,54.78
2018-03-15T19:55:06.750Z,60.85
2018-03-15T19:57:37.158Z,55.97
2018-03-15T20:00:06.005Z,49.05
2018-03-15T20:02:34.958Z,50.15
2018-03-15T20:05:05.387Z,48.72
2018-03-15T20:07:34.626Z,50.58
2018-03-15T20:10:04.023Z,44.78
2018-03-15T20:12:32.917Z,45.30
2018-03-15T20:15:33.859Z,43.63
2018-03-15T20:18:06.995Z,49.35
2018-03-15T20:20:36.100Z,48.65
2018-03-15T20:23:11.435Z,48.15
2018-03-15T20:25:41.492Z,49.58
2018-03-15T20:33:10.542Z,41.72
2018-03-15T20:35:40.977Z,43.45
2018-03-15T20:38:10.539Z,41.97
2018-03-15T20:40:45.080Z,43.45
2018-03-15T20:43:14.423Z,46.20
2018-03-15T20:45:48.999Z,48.72
2018-03-15T20:48:24.028Z,55.12
2018-03-15T20:50:53.762Z,55.00
2018-03-15T20:53:23.094Z,54.15
2018-03-15T20:55:52.559Z,53.53
2018-03-15T20:58:22.523Z,52.03
2018-03-15T21:00:51.696Z,50.05
2018-03-15T21:03:20.828Z,51.90
2018-03-15T21:05:50.586Z,52.00
2018-03-15T21:08:19.794Z,49.53
2018-03-15T21:10:49.054Z,49.08
2018-03-15T21:13:18.017Z,51.97
2018-03-15T21:15:47.303Z,50.30
2018-03-15T21:18:16.802Z,47.75
2018-03-15T21:20:46.231Z,49.22
2018-03-15T21:23:15.357Z,51.00
2018-03-15T21:25:45.355Z,50.20
2018-03-15T21:28:14.291Z,50.10
2018-03-15T21:30:43.530Z,50.97
2018-03-15T21:33:12.891Z,50.97
2018-03-15T21:35:41.773Z,51.58
2018-03-15T21:38:11.142Z,49.65
2018-03-15T21:40:40.887Z,49.95
2018-03-15T21:43:11.023Z,48.47
2018-03-15T21:45:41.430Z,47.53
2018-03-15T21:48:10.976Z,47.22
2018-03-15T21:50:40.571Z,48.20
2018-03-15T21:53:10.028Z,49.10
2018-03-15T21:55:39.901Z,47.55
2018-03-15T21:58:11.027Z,48.00
2018-03-15T22:00:41.513Z,46.55
2018-03-15T22:03:12.023Z,46.53
2018-03-15T22:05:43.428Z,44.75
2018-03-15T22:08:12.896Z,43.15
2018-03-15T22:10:42.037Z,46.37
2018-03-15T22:13:11.656Z,45.00
2018-03-15T22:15:40.915Z,46.30
2018-03-15T22:18:11.465Z,45.70
2018-03-15T22:20:41.296Z,43.97
2018-03-15T22:23:10.905Z,41.67
2018-03-15T22:25:40.689Z,40.17
2018-03-15T22:28:10.631Z,38.67
2018-03-15T22:30:41.355Z,36.60
2018-03-15T22:33:14.090Z,36.88
2018-03-15T22:35:43.380Z,35.85
2018-03-15T22:38:13.117Z,35.85
2018-03-15T22:40:43.870Z,32.47
2018-03-15T22:43:13.475Z,34.63
2018-03-15T22:45:42.782Z,31.67
2018-03-15T22:48:12.091Z,32.20
2018-03-15T22:50:41.382Z,30.83
2018-03-15T22:53:12.621Z,31.12
2018-03-15T22:55:42.114Z,32.28
2018-03-15T22:58:11.359Z,31.95
2018-03-15T23:00:41.664Z,34.28
2018-03-15T23:03:11.180Z,33.25
2018-03-15T23:05:40.587Z,33.85
2018-03-15T23:08:10.758Z,32.47
2018-03-15T23:10:40.443Z,29.70
2018-03-15T23:13:10.762Z,31.10
2018-03-15T23:15:40.595Z,35.80
2018-03-15T23:18:10.518Z,33.60
2018-03-15T23:20:40.205Z,32.45
2018-03-15T23:23:09.323Z,33.03
2018-03-15T23:25:39.053Z,33.28
2018-03-15T23:28:10.503Z,31.87
2018-03-15T23:30:40.192Z,31.60
2018-03-15T23:33:09.396Z,32.08
2018-03-15T23:35:39.241Z,33.08
2018-03-15T23:38:10.238Z,38.28
2018-03-15T23:40:40.176Z,36.00
2018-03-15T23:43:09.736Z,34.80
2018-03-15T23:45:40.170Z,33.50
2018-03-15T23:48:09.775Z,31.20
2018-03-15T23:50:41.464Z,31.80
2018-03-15T23:53:11.286Z,31.95
2018-03-15T23:55:40.532Z,30.45
2018-03-15T23:58:09.987Z,30.65
